createdAt,value
2024-05-09T00:00:46.254Z,50.62
2024-05-09T00:03:34.438Z,50.24
2024-05-09T00:06:02.512Z,50.27
2024-05-09T00:08:30.663Z,50.03
2024-05-09T00:10:58.801Z,49.68
2024-05-09T00:13:26.758Z,49.70
2024-05-09T00:15:54.543Z,49.52
2024-05-09T00:18:22.549Z,49.77
2024-05-09T00:20:50.604Z,49.81
2024-05-09T00:23:18.550Z,50.12
2024-05-09T00:25:46.419Z,49.94
2024-05-09T00:28:14.280Z,50.22
2024-05-09T00:30:42.089Z,50.29
2024-05-09T00:33:11.036Z,50.26
2024-05-09T00:35:40.066Z,49.88
2024-05-09T00:38:08.172Z,50.08
2024-05-09T00:40:42.313Z,50.34
2024-05-09T00:43:12.676Z,50.56
2024-05-09T00:45:42.061Z,50.24
2024-05-09T00:48:16.194Z,50.19
2024-05-09T00:50:47.098Z,50.10
2024-05-09T00:53:17.402Z,49.67
2024-05-09T00:55:47.630Z,49.27
2024-05-09T00:58:20.144Z,49.81
2024-05-09T01:00:50.416Z,49.61
2024-05-09T01:03:18.850Z,49.40
2024-05-09T01:05:47.163Z,49.48
2024-05-09T01:08:15.325Z,49.50
2024-05-09T01:10:46.086Z,50.07
2024-05-09T01:13:15.893Z,50.61
2024-05-09T01:15:44.266Z,50.64
2024-05-09T01:18:13.780Z,52.94
2024-05-09T01:20:44.612Z,53.66
2024-05-09T01:23:15.716Z,52.84
2024-05-09T01:25:46.528Z,52.52
2024-05-09T01:28:16.206Z,52.34
2024-05-09T01:30:44.327Z,52.58
2024-05-09T01:33:13.025Z,52.65
2024-05-09T01:35:42.715Z,53.45
2024-05-09T01:38:17.257Z,53.78
2024-05-09T01:40:47.029Z,53.11
2024-05-09T01:43:15.978Z,53.32
2024-05-09T01:45:43.912Z,53.15
2024-05-09T01:48:12.120Z,53.00
2024-05-09T01:50:42.487Z,52.99
2024-05-09T01:53:13.976Z,53.07
2024-05-09T01:55:43.246Z,54.30
2024-05-09T01:58:11.387Z,54.13
2024-05-09T02:00:42.394Z,53.66
2024-05-09T02:03:15.567Z,54.21
2024-05-09T02:05:47.656Z,54.28
2024-05-09T02:08:18.924Z,54.87
2024-05-09T02:10:49.362Z,54.71
2024-05-09T02:13:18.142Z,54.92
2024-05-09T02:15:46.715Z,54.63
2024-05-09T02:18:14.820Z,54.66
2024-05-09T02:20:43.576Z,55.28
2024-05-09T02:23:12.468Z,55.12
2024-05-09T02:25:43.862Z,55.36
2024-05-09T02:28:11.696Z,55.29
2024-05-09T02:30:41.652Z,54.99
2024-05-09T02:33:12.651Z,55.59
2024-05-09T02:35:43.796Z,55.39
2024-05-09T02:38:13.085Z,56.04
2024-05-09T02:40:41.502Z,55.82
2024-05-09T02:43:12.748Z,55.70
2024-05-09T02:45:41.512Z,56.44
2024-05-09T02:48:13.882Z,56.28
2024-05-09T02:50:44.390Z,55.42
2024-05-09T02:53:13.513Z,55.41
2024-05-09T02:55:42.928Z,55.41
2024-05-09T02:58:11.727Z,55.71
2024-05-09T03:00:42.085Z,55.76
2024-05-09T03:03:14.101Z,55.83
2024-05-09T03:05:45.463Z,56.01
2024-05-09T03:08:14.146Z,55.91
2024-05-09T03:10:42.762Z,55.60
2024-05-09T03:13:14.956Z,55.22
2024-05-09T03:15:45.130Z,55.66
2024-05-09T03:18:13.725Z,55.07
2024-05-09T03:20:43.987Z,54.72
2024-05-09T03:23:12.485Z,54.81
2024-05-09T03:25:40.659Z,54.58
2024-05-09T03:28:08.567Z,54.57
2024-05-09T03:30:41.354Z,54.03
2024-05-09T03:33:13.839Z,53.96
2024-05-09T03:35:43.810Z,54.17
2024-05-09T03:38:11.782Z,54.16
2024-05-09T03:40:47.398Z,54.73
2024-05-09T03:43:16.510Z,54.61
2024-05-09T03:45:45.665Z,54.82
2024-05-09T03:48:14.015Z,55.03
2024-05-09T03:50:42.312Z,54.64
2024-05-09T03:53:13.730Z,54.69
2024-05-09T03:55:42.130Z,54.26
2024-05-09T03:58:12.613Z,54.24
2024-05-09T04:00:42.298Z,54.17
2024-05-09T04:03:12.208Z,54.63
2024-05-09T04:05:43.752Z,54.44
2024-05-09T04:08:15.750Z,54.28
2024-05-09T04:10:44.216Z,54.39
2024-05-09T04:13:12.295Z,54.20
2024-05-09T04:15:40.310Z,54.10
2024-05-09T04:18:08.468Z,54.18
2024-05-09T04:20:39.669Z,54.84
2024-05-09T04:23:14.239Z,54.49
2024-05-09T04:25:44.969Z,54.36
2024-05-09T04:28:13.966Z,54.38
2024-05-09T04:30:42.614Z,55.07
2024-05-09T04:33:13.199Z,54.31
2024-05-09T04:35:43.723Z,53.71
2024-05-09T04:38:15.547Z,53.97
2024-05-09T04:40:44.045Z,53.78
2024-05-09T04:43:17.294Z,54.14
2024-05-09T04:45:45.760Z,54.06
2024-05-09T04:48:13.876Z,54.42
2024-05-09T04:50:42.257Z,55.35
2024-05-09T04:53:15.872Z,55.37
2024-05-09T04:55:44.321Z,54.36
2024-05-09T04:58:12.550Z,54.12
2024-05-09T05:00:41.561Z,54.22
2024-05-09T05:03:14.210Z,53.64
2024-05-09T05:05:46.052Z,53.53
2024-05-09T05:08:16.613Z,53.56
2024-05-09T05:10:46.593Z,53.72
2024-05-09T05:13:23.857Z,53.84
2024-05-09T05:15:56.823Z,54.51
2024-05-09T05:18:27.882Z,54.06
2024-05-09T05:20:56.943Z,53.90
2024-05-09T05:23:25.278Z,54.11
2024-05-09T05:25:55.429Z,54.01
2024-05-09T05:28:24.079Z,53.65
2024-05-09T05:30:52.172Z,53.41
2024-05-09T05:33:22.287Z,53.54
2024-05-09T05:35:50.851Z,53.59
2024-05-09T05:38:20.022Z,53.51
2024-05-09T05:40:49.900Z,53.26
2024-05-09T05:43:19.045Z,51.77
2024-05-09T05:45:47.118Z,51.08
2024-05-09T05:48:17.289Z,50.59
2024-05-09T05:50:46.019Z,50.90
2024-05-09T05:53:14.409Z,50.66
2024-05-09T05:55:42.454Z,50.38
2024-05-09T05:58:12.282Z,50.42
2024-05-09T06:00:42.086Z,50.36
2024-05-09T06:03:12.715Z,50.10
2024-05-09T06:05:46.043Z,50.03
2024-05-09T06:08:14.433Z,49.11
2024-05-09T06:10:42.775Z,49.43
2024-05-09T06:13:12.479Z,49.64
2024-05-09T06:15:41.275Z,48.34
2024-05-09T06:18:11.095Z,48.24
2024-05-09T06:20:42.885Z,48.40
2024-05-09T06:23:12.923Z,47.97
2024-05-09T06:25:42.295Z,48.49
2024-05-09T06:28:11.438Z,47.87
2024-05-09T06:30:42.251Z,48.34
2024-05-09T06:33:14.413Z,47.11
2024-05-09T06:35:46.088Z,47.12
2024-05-09T06:38:14.208Z,46.70
2024-05-09T06:40:43.826Z,46.61
2024-05-09T06:43:17.741Z,45.32
2024-05-09T06:45:49.017Z,44.99
2024-05-09T06:48:19.758Z,44.22
2024-05-09T06:50:48.808Z,44.14
2024-05-09T06:53:20.413Z,41.62
2024-05-09T06:55:48.535Z,42.93
2024-05-09T06:58:16.853Z,41.93
2024-05-09T07:00:44.883Z,42.48
2024-05-09T07:03:16.865Z,42.78
2024-05-09T07:05:48.066Z,41.99
2024-05-09T07:08:18.395Z,41.06
2024-05-09T07:10:46.843Z,40.77
2024-05-09T07:13:15.751Z,40.37
2024-05-09T07:15:43.995Z,41.10
2024-05-09T07:18:13.961Z,40.45
2024-05-09T07:20:42.657Z,40.72
2024-05-09T07:23:12.026Z,38.87
2024-05-09T07:25:41.036Z,39.20
2024-05-09T07:28:16.779Z,38.41
2024-05-09T07:30:45.377Z,38.39
2024-05-09T07:33:22.178Z,37.94
2024-05-09T07:35:52.245Z,38.35
2024-05-09T07:38:20.557Z,38.32
2024-05-09T07:40:49.433Z,39.61
2024-05-09T07:43:17.821Z,39.25
2024-05-09T07:45:52.540Z,38.97
2024-05-09T07:52:38.823Z,39.18
2024-05-09T07:53:47.885Z,39.42
2024-05-09T07:56:21.751Z,39.91
2024-05-09T07:58:52.708Z,39.82
2024-05-09T08:01:21.377Z,38.90
2024-05-09T08:03:50.830Z,38.99
2024-05-09T08:06:19.229Z,38.96
2024-05-09T08:08:47.590Z,38.77
2024-05-09T08:11:15.915Z,38.35
2024-05-09T08:13:44.024Z,37.99
2024-05-09T08:16:14.119Z,37.04
2024-05-09T08:18:43.009Z,37.75
2024-05-09T08:21:11.033Z,37.42
2024-05-09T08:23:38.986Z,36.76
2024-05-09T08:26:07.208Z,36.37
2024-05-09T08:28:35.153Z,36.92
2024-05-09T08:31:06.627Z,36.30
2024-05-09T08:33:35.400Z,36.41
2024-05-09T08:36:03.821Z,35.76
2024-05-09T08:38:31.669Z,35.26
2024-05-09T08:41:03.435Z,34.95
2024-05-09T08:43:31.390Z,35.43
2024-05-09T08:46:00.215Z,36.03
2024-05-09T08:48:30.435Z,35.96
2024-05-09T08:50:59.562Z,35.62
2024-05-09T08:53:27.733Z,35.68
2024-05-09T08:56:00.887Z,34.79
2024-05-09T08:58:33.240Z,35.15
2024-05-09T09:01:04.075Z,35.22
2024-05-09T09:03:33.964Z,35.34
2024-05-09T09:06:06.484Z,35.13
2024-05-09T09:08:35.936Z,35.09
2024-05-09T09:11:05.344Z,34.18
2024-05-09T09:13:33.221Z,33.88
2024-05-09T09:16:02.711Z,33.03
2024-05-09T09:18:31.186Z,33.79
2024-05-09T09:20:59.270Z,34.72
2024-05-09T09:23:30.458Z,35.15
2024-05-09T09:26:00.063Z,35.03
2024-05-09T09:28:29.419Z,34.70
2024-05-09T09:31:04.487Z,33.43
2024-05-09T09:33:35.379Z,33.62
2024-05-09T09:36:05.729Z,32.99
2024-05-09T09:38:37.614Z,32.08
2024-05-09T09:41:08.411Z,32.66
2024-05-09T09:43:37.259Z,32.37
2024-05-09T09:46:08.799Z,31.27
2024-05-09T09:48:40.508Z,31.99
2024-05-09T09:51:09.526Z,32.16
2024-05-09T09:53:38.463Z,33.15
2024-05-09T09:56:07.782Z,33.04
2024-05-09T09:58:38.533Z,33.58
2024-05-09T10:01:10.530Z,33.60
2024-05-09T10:03:38.901Z,33.89
2024-05-09T10:06:08.549Z,33.57
2024-05-09T10:08:37.604Z,32.67
2024-05-09T10:11:06.485Z,31.70
2024-05-09T10:13:34.951Z,32.37
2024-05-09T10:16:10.907Z,32.15
2024-05-09T10:18:40.854Z,31.66
2024-05-09T10:21:16.653Z,32.68
2024-05-09T10:23:56.746Z,32.42
2024-05-09T10:26:35.773Z,32.64
2024-05-09T10:29:17.374Z,32.92
2024-05-09T10:31:47.197Z,33.10
2024-05-09T10:34:20.060Z,33.97
2024-05-09T10:36:53.738Z,33.44
2024-05-09T10:39:22.143Z,33.26
2024-05-09T10:41:50.249Z,33.91
2024-05-09T10:44:18.633Z,33.91
2024-05-09T10:46:46.660Z,33.52
2024-05-09T10:49:14.988Z,33.54
2024-05-09T10:51:47.289Z,31.97
2024-05-09T10:54:15.217Z,32.03
2024-05-09T10:56:43.096Z,32.67
2024-05-09T10:59:12.662Z,32.60
2024-05-09T11:01:40.833Z,31.19
2024-05-09T11:04:09.286Z,30.26
2024-05-09T11:06:38.432Z,29.79
2024-05-09T11:09:06.818Z,30.23
2024-05-09T11:11:34.806Z,31.25
2024-05-09T11:14:14.694Z,30.38
2024-05-09T11:16:42.565Z,30.26
2024-05-09T11:19:18.483Z,28.86
2024-05-09T11:21:51.475Z,28.63
2024-05-09T11:24:19.330Z,29.12
2024-05-09T11:26:47.237Z,29.53
2024-05-09T11:29:17.178Z,29.66
2024-05-09T11:31:49.711Z,29.69
2024-05-09T11:34:17.790Z,30.03
2024-05-09T11:36:45.682Z,30.14
2024-05-09T11:39:14.896Z,30.56
2024-05-09T11:41:42.973Z,30.91
2024-05-09T11:44:10.787Z,30.56
2024-05-09T11:46:38.698Z,30.25
2024-05-09T11:49:06.868Z,29.68
2024-05-09T11:51:35.117Z,30.41
2024-05-09T11:54:03.062Z,30.27
2024-05-09T11:56:30.927Z,30.22
2024-05-09T11:58:58.934Z,29.91
2024-05-09T12:01:27.890Z,30.52
2024-05-09T12:03:56.485Z,30.62
2024-05-09T12:06:24.499Z,29.03
2024-05-09T12:08:52.461Z,30.30
2024-05-09T12:11:20.656Z,29.63
2024-05-09T12:13:48.490Z,29.91
2024-05-09T12:16:16.578Z,29.85
2024-05-09T12:18:48.125Z,29.89
2024-05-09T12:21:17.436Z,29.43
2024-05-09T12:23:45.281Z,29.62
2024-05-09T12:26:13.104Z,30.02
2024-05-09T12:28:40.917Z,29.97
2024-05-09T12:31:09.013Z,30.36
2024-05-09T12:33:37.058Z,29.93
2024-05-09T12:36:05.122Z,29.46
2024-05-09T12:38:33.006Z,29.04
2024-05-09T12:41:00.803Z,28.99
2024-05-09T12:43:28.716Z,27.05
2024-05-09T12:45:56.822Z,27.29
2024-05-09T12:48:24.817Z,26.50
2024-05-09T12:50:54.851Z,27.38
2024-05-09T12:53:23.465Z,27.83
2024-05-09T12:55:56.872Z,28.07
2024-05-09T12:58:28.201Z,27.76
2024-05-09T13:00:56.119Z,27.62
2024-05-09T13:03:24.304Z,28.29
2024-05-09T13:05:52.974Z,28.64
2024-05-09T13:08:21.229Z,29.19
2024-05-09T13:10:50.221Z,29.42
2024-05-09T13:13:18.441Z,29.77
2024-05-09T13:15:46.560Z,28.71
2024-05-09T13:18:14.458Z,29.28
2024-05-09T13:20:42.283Z,29.24
2024-05-09T13:23:10.117Z,29.54
2024-05-09T13:25:38.327Z,29.36
2024-05-09T13:28:07.867Z,29.47
2024-05-09T13:30:40.182Z,29.81
2024-05-09T13:33:12.157Z,29.44
2024-05-09T13:35:48.602Z,29.51
2024-05-09T13:38:20.516Z,29.21
2024-05-09T13:40:50.013Z,29.04
2024-05-09T13:43:19.153Z,29.46
2024-05-09T13:45:47.775Z,29.01
2024-05-09T13:48:15.923Z,28.39
2024-05-09T13:50:43.871Z,28.40
2024-05-09T13:53:11.782Z,28.30
2024-05-09T13:55:40.559Z,28.94
2024-05-09T13:58:09.578Z,28.86
2024-05-09T14:00:45.153Z,28.12
2024-05-09T14:03:19.272Z,27.28
2024-05-09T14:05:50.838Z,26.22
2024-05-09T14:08:21.806Z,26.82
2024-05-09T14:10:50.937Z,26.47
2024-05-09T14:13:19.940Z,26.77
2024-05-09T14:15:48.595Z,26.51
2024-05-09T14:18:17.368Z,25.89
2024-05-09T14:20:45.279Z,26.08
2024-05-09T14:23:14.863Z,26.51
2024-05-09T14:25:44.033Z,26.76
2024-05-09T14:28:13.503Z,27.36
2024-05-09T14:30:42.905Z,28.05
2024-05-09T14:33:11.625Z,28.57
2024-05-09T14:35:39.835Z,28.80
2024-05-09T14:38:08.697Z,29.98
2024-05-09T14:40:42.336Z,30.85
2024-05-09T14:43:14.362Z,31.70
2024-05-09T14:45:43.960Z,32.46
2024-05-09T14:48:15.004Z,33.20
2024-05-09T14:50:43.482Z,33.14
2024-05-09T14:53:13.626Z,33.97
2024-05-09T14:55:43.406Z,33.08
2024-05-09T14:58:13.046Z,33.71
2024-05-09T15:00:46.442Z,34.11
2024-05-09T15:03:19.654Z,34.35
2024-05-09T15:05:48.809Z,34.10
2024-05-09T15:08:18.230Z,33.56
2024-05-09T15:10:47.194Z,33.95
2024-05-09T15:13:16.771Z,33.42
2024-05-09T15:15:45.355Z,33.64
2024-05-09T15:18:17.278Z,32.71
2024-05-09T15:20:45.802Z,32.40
2024-05-09T15:23:13.946Z,31.82
2024-05-09T15:25:41.954Z,31.57
2024-05-09T15:28:10.158Z,31.11
2024-05-09T15:30:38.681Z,32.06
2024-05-09T15:33:08.076Z,31.90
2024-05-09T15:35:41.009Z,32.41
2024-05-09T15:38:10.179Z,33.31
2024-05-09T15:40:40.472Z,33.27
2024-05-09T15:43:11.116Z,33.07
2024-05-09T15:45:41.229Z,33.25
2024-05-09T15:48:10.524Z,33.43
2024-05-09T15:50:41.541Z,33.23
2024-05-09T15:53:13.302Z,33.77
2024-05-09T15:55:43.038Z,33.94
2024-05-09T15:58:11.239Z,34.94
2024-05-09T16:00:42.319Z,34.83
2024-05-09T16:03:13.634Z,34.79
2024-05-09T16:05:45.391Z,35.68
2024-05-09T16:08:14.749Z,35.85
2024-05-09T16:10:45.895Z,35.98
2024-05-09T16:13:16.085Z,36.10
2024-05-09T16:15:44.383Z,36.22
2024-05-09T16:18:12.787Z,36.80
2024-05-09T16:20:42.553Z,36.35
2024-05-09T16:23:12.867Z,37.13
2024-05-09T16:25:46.011Z,36.94
2024-05-09T16:28:13.994Z,37.19
2024-05-09T16:30:42.209Z,36.48
2024-05-09T16:33:11.772Z,35.76
2024-05-09T16:35:40.527Z,35.55
2024-05-09T16:38:08.625Z,35.25
2024-05-09T16:40:40.141Z,35.14
2024-05-09T16:43:11.207Z,35.45
2024-05-09T16:45:41.385Z,35.97
2024-05-09T16:48:09.988Z,35.41
2024-05-09T16:50:38.261Z,35.35
2024-05-09T16:53:06.783Z,35.81
2024-05-09T16:55:36.120Z,36.25
2024-05-09T16:58:06.960Z,35.95
2024-05-09T17:00:40.942Z,36.11
2024-05-09T17:03:15.580Z,36.22
2024-05-09T17:05:46.871Z,36.62
2024-05-09T17:08:19.883Z,36.77
2024-05-09T17:10:51.175Z,36.80
2024-05-09T17:13:19.858Z,37.08
2024-05-09T17:15:51.823Z,36.93
2024-05-09T17:18:20.203Z,37.75
2024-05-09T17:20:50.178Z,37.88
2024-05-09T17:23:18.140Z,38.66
2024-05-09T17:25:46.012Z,39.55
2024-05-09T17:28:13.986Z,39.57
2024-05-09T17:30:42.833Z,40.22
2024-05-09T17:33:12.587Z,38.31
2024-05-09T17:35:41.630Z,38.09
2024-05-09T17:38:09.710Z,38.18
2024-05-09T17:40:38.940Z,39.02
2024-05-09T17:43:09.643Z,39.43
2024-05-09T17:45:41.046Z,39.69
2024-05-09T17:48:11.392Z,39.58
2024-05-09T17:50:41.208Z,39.18
2024-05-09T17:53:10.460Z,39.86
2024-05-09T17:55:39.180Z,40.03
2024-05-09T17:58:07.961Z,40.47
2024-05-09T18:00:39.726Z,40.95
2024-05-09T18:03:12.109Z,41.54
2024-05-09T18:05:43.292Z,41.60
2024-05-09T18:08:12.734Z,41.93
2024-05-09T18:10:41.887Z,41.78
2024-05-09T18:13:12.083Z,41.74
2024-05-09T18:15:41.089Z,42.33
2024-05-09T18:18:10.483Z,42.53
2024-05-09T18:20:43.785Z,42.95
2024-05-09T18:23:16.516Z,42.88
2024-05-09T18:25:47.018Z,42.91
2024-05-09T18:28:16.949Z,42.98
2024-05-09T18:30:45.593Z,43.22
2024-05-09T18:33:13.931Z,43.30
2024-05-09T18:35:43.920Z,42.93
2024-05-09T18:38:11.991Z,43.27
2024-05-09T18:40:41.901Z,43.66
2024-05-09T18:43:11.656Z,43.19
2024-05-09T18:45:40.010Z,42.78
2024-05-09T18:48:09.806Z,42.98
2024-05-09T18:50:40.745Z,43.12
2024-05-09T18:53:12.045Z,43.19
2024-05-09T18:55:44.259Z,43.20
2024-05-09T18:58:12.539Z,43.30
2024-05-09T19:00:42.968Z,42.72
2024-05-09T19:03:14.613Z,43.06
2024-05-09T19:05:45.017Z,42.52
2024-05-09T19:08:15.067Z,42.85
2024-05-09T19:10:45.317Z,42.42
2024-05-09T19:13:14.526Z,42.26
2024-05-09T19:15:43.756Z,42.32
2024-05-09T19:18:14.198Z,42.39
2024-05-09T19:20:43.980Z,42.77
2024-05-09T19:23:12.473Z,42.96
2024-05-09T19:25:40.525Z,43.37
2024-05-09T19:28:08.604Z,43.30
2024-05-09T19:30:40.885Z,42.64
2024-05-09T19:33:13.011Z,42.42
2024-05-09T19:35:43.005Z,42.65
2024-05-09T19:38:11.946Z,42.28
2024-05-09T19:40:40.346Z,42.88
2024-05-09T19:43:08.633Z,43.18
2024-05-09T19:45:37.006Z,42.75
2024-05-09T19:48:06.623Z,43.03
2024-05-09T19:50:41.810Z,43.17
2024-05-09T19:53:14.312Z,43.76
2024-05-09T19:55:43.362Z,43.87
2024-05-09T19:58:12.305Z,43.34
2024-05-09T20:00:43.116Z,42.55
2024-05-09T20:03:14.310Z,42.63
2024-05-09T20:05:47.153Z,42.64
2024-05-09T20:08:15.486Z,42.49
2024-05-09T20:10:43.586Z,42.61
2024-05-09T20:13:11.684Z,43.59
2024-05-09T20:15:40.014Z,43.41
2024-05-09T20:18:08.338Z,43.25
2024-05-09T20:20:40.385Z,42.83
2024-05-09T20:23:12.293Z,43.36
2024-05-09T20:25:42.445Z,43.08
2024-05-09T20:28:11.081Z,42.79
2024-05-09T20:30:39.456Z,43.64
2024-05-09T20:33:08.907Z,43.30
2024-05-09T20:35:37.746Z,43.00
2024-05-09T20:38:05.697Z,43.75
2024-05-09T20:40:37.606Z,43.52
2024-05-09T20:43:09.270Z,44.35
2024-05-09T20:45:38.413Z,44.43
2024-05-09T20:48:07.743Z,43.95
2024-05-09T20:50:39.899Z,44.53
2024-05-09T20:53:14.708Z,44.51
2024-05-09T20:55:44.609Z,45.00
2024-05-09T20:58:13.787Z,44.33
2024-05-09T21:00:44.762Z,44.87
2024-05-09T21:03:18.017Z,45.20
2024-05-09T21:05:48.386Z,45.20
2024-05-09T21:08:16.869Z,45.16
2024-05-09T21:10:44.892Z,45.20
2024-05-09T21:13:13.174Z,45.28
2024-05-09T21:15:41.247Z,45.60
2024-05-09T21:18:09.344Z,45.60
2024-05-09T21:20:37.625Z,45.60
2024-05-09T21:23:05.885Z,45.70
2024-05-09T21:25:33.732Z,45.58
2024-05-09T21:28:01.640Z,45.39
2024-05-09T21:30:38.584Z,45.82
2024-05-09T21:33:14.744Z,45.84
2024-05-09T21:35:44.017Z,45.76
2024-05-09T21:38:15.910Z,45.59
2024-05-09T21:40:44.616Z,45.57
2024-05-09T21:43:13.128Z,45.40
2024-05-09T21:45:41.372Z,45.20
2024-05-09T21:48:09.444Z,44.41
2024-05-09T21:50:41.011Z,44.32
2024-05-09T21:53:12.396Z,45.03
2024-05-09T21:55:42.254Z,44.79
2024-05-09T21:58:11.767Z,44.41
2024-05-09T22:00:42.798Z,44.72
2024-05-09T22:03:12.023Z,44.58
2024-05-09T22:05:43.584Z,44.52
2024-05-09T22:08:11.860Z,44.29
2024-05-09T22:10:39.854Z,44.55
2024-05-09T22:13:08.921Z,44.78
2024-05-09T22:15:39.719Z,44.49
2024-05-09T22:18:10.996Z,44.34
2024-05-09T22:20:44.809Z,44.62
2024-05-09T22:23:15.530Z,45.16
2024-05-09T22:25:43.470Z,44.80
2024-05-09T22:28:14.535Z,45.43
2024-05-09T22:30:45.751Z,45.21
2024-05-09T22:33:15.040Z,44.58
2024-05-09T22:35:43.272Z,44.77
2024-05-09T22:38:11.163Z,44.72
2024-05-09T22:40:46.916Z,45.19
2024-05-09T22:43:23.077Z,44.80
2024-05-09T22:45:56.567Z,45.64
2024-05-09T22:48:25.828Z,46.69
2024-05-09T22:50:54.493Z,46.45
2024-05-09T22:53:25.207Z,46.45
2024-05-09T22:55:54.272Z,47.14
2024-05-09T22:58:23.878Z,47.12
2024-05-09T23:00:52.477Z,47.75
2024-05-09T23:03:21.698Z,47.12
2024-05-09T23:05:50.689Z,47.03
2024-05-09T23:08:18.935Z,46.94
2024-05-09T23:10:46.955Z,46.11
2024-05-09T23:13:15.034Z,45.67
2024-05-09T23:15:43.076Z,45.56
2024-05-09T23:18:11.189Z,45.29
2024-05-09T23:20:40.220Z,45.10
2024-05-09T23:23:10.873Z,45.29
2024-05-09T23:25:43.672Z,45.35
2024-05-09T23:28:12.474Z,45.32
2024-05-09T23:30:41.741Z,45.30
2024-05-09T23:33:12.776Z,45.48
2024-05-09T23:35:42.417Z,45.38
2024-05-09T23:38:10.421Z,45.38
2024-05-09T23:40:40.806Z,45.64
2024-05-09T23:43:11.392Z,45.55
2024-05-09T23:45:40.660Z,45.48
2024-05-09T23:48:09.706Z,45.48
2024-05-09T23:50:39.527Z,45.55
2024-05-09T23:53:09.776Z,45.55
2024-05-09T23:55:39.253Z,45.69
2024-05-09T23:58:08.686Z,45.95
